Latest Weather Observations for Lajamanu

IDD60801

Issued at 3:05 pm CST Friday 22 August 2014 (issued every 30 minutes, with the page automatically refreshed every 10 minutes)

About weather observations | Map of weather stations | Latest weather observations for NT | Other Formats
Station Details ID: 014829 Name: LAJAMANU AIRPORT Lat: -18.33 Lon: 130.64 Height: 315.6 m
Data from the previous 72 hours. | See also: Recent months at Lajamanu
Date/Time
CST
Temp
°C
App
Temp
°C
Dew
Point
Rel
Hum
%
Delta-T
°C
Wind Press
QNH
hPa
Press
MSL
hPa
Rain
since 9 am
mm
Dir
 
Spd
km/h
Gust
km/h
Spd
kts
Gust
kts
22/03:00pm 26.6 19.9 -7.5 10 14.1 SE 20 32 11 17 1016.7 1015.6 0.0
22/02:30pm 26.6 19.2 -7.5 10 14.1 SE 24 32 13 17 1017.1 1016.0 0.0
22/02:00pm 26.4 19.4 -7.6 10 14.0 ESE 22 33 12 18 1017.6 - 0.0
22/01:30pm 27.3 21.4 -5.7 11 14.1 ESE 17 28 9 15 1018.1 1017.0 0.0
22/01:00pm 26.4 19.9 -6.4 11 13.8 SE 20 33 11 18 1018.7 - 0.0
22/12:30pm 26.1 19.7 -6.6 11 13.6 SE 19 30 10 16 1019.3 1018.3 0.0
22/12:00pm 24.6 18.6 -6.7 12 12.8 ESE 17 28 9 15 1020.0 1018.9 0.0
22/11:30am 24.6 18.2 -6.7 12 12.8 ESE 19 26 10 14 1020.3 1019.2 0.0
22/11:00am 23.7 18.1 -6.3 13 12.3 E 15 26 8 14 1020.8 - 0.0
22/10:30am 22.6 16.2 -7.2 13 11.9 E 19 24 10 13 1021.1 1020.0 0.0
22/10:00am 21.2 15.2 -6.4 15 11.0 E 17 24 9 13 1021.3 - 0.0
22/09:30am 19.3 14.3 -4.2 20 9.6 ESE 13 19 7 10 1021.3 1020.3 0.0
22/09:00am 16.8 11.9 -3.3 25 8.2 ESE 13 17 7 9 1021.3 1020.3 0.0
22/08:30am 13.5 9.1 -2.8 32 6.5 ESE 11 15 6 8 1021.1 1020.0 0.0
22/08:00am 10.3 6.8 -1.4 44 4.7 SE 7 9 4 5 1020.8 - 0.0
22/07:30am 5.9 2.9 -2.0 57 2.9 N 4 9 2 5 1020.3 1019.2 0.0
22/07:00am 4.6 1.5 -2.5 60 2.6 WNW 4 6 2 3 1020.1 - 0.0
22/06:30am 5.2 1.7 -3.1 55 3.0 NW 6 7 3 4 1019.8 1018.7 0.0
22/06:00am 5.3 2.9 -2.8 56 2.9 CALM 0 6 0 3 1019.3 1018.3 0.0
22/05:30am 6.2 2.8 -2.4 54 3.2 SSE 6 7 3 4 1018.7 1017.7 0.0
22/05:00am 6.5 2.8 -2.9 51 3.5 SE 7 7 4 4 1018.5 - 0.0
22/04:30am 7.4 3.9 -2.9 48 3.8 SE 6 7 3 4 1018.5 1017.5 0.0
22/04:00am 7.3 3.6 -2.7 49 3.7 SE 7 7 4 4 1018.5 - 0.0
22/03:30am 6.7 4.4 -2.7 51 3.5 CALM 0 0 0 0 1018.4 1017.4 0.0
22/03:00am 6.9 4.5 -3.1 49 3.7 CALM 0 0 0 0 1018.6 1017.6 0.0
22/02:30am 8.4 5.3 -2.5 46 4.1 WNW 4 7 2 4 1018.8 1017.8 0.0
22/02:00am 7.4 3.9 -2.9 48 3.8 WNW 6 7 3 4 1018.9 - 0.0
22/01:30am 7.6 4.0 -3.9 44 4.2 NW 6 7 3 4 1019.1 1018.1 0.0
22/01:00am 8.8 6.4 -3.4 42 4.6 CALM 0 0 0 0 1019.2 - 0.0
22/12:30am 8.6 6.1 -3.9 41 4.6 CALM 0 0 0 0 1019.5 1018.4 0.0
22/12:00am 9.5 7.0 -3.7 39 4.9 SE 0 0 0 0 1019.5 1018.4 0.0
 
Date/Time
CST
Temp
°C
App
Temp
°C
Dew
Point
Rel
Hum
%
Delta-T
°C
Wind Press
QNH
hPa
Press
MSL
hPa
Rain
since 9 am
mm
Dir
 
Spd
km/h
Gust
km/h
Spd
kts
Gust
kts
21/11:30pm 10.5 7.2 -4.7 34 5.6 ESE 4 7 2 4 1019.6 1018.5 0.0
21/11:00pm 13.0 9.3 -3.3 32 6.4 ESE 7 9 4 5 1019.7 - 0.0
21/10:30pm 11.6 7.8 -4.1 33 5.9 ESE 7 7 4 4 1019.8 1018.7 0.0
21/10:00pm 13.2 9.3 -4.4 29 6.7 E 7 9 4 5 1019.6 - 0.0
21/09:30pm 13.7 9.9 -4.0 29 6.9 ESE 7 7 4 4 1019.3 1018.3 0.0
21/09:00pm 13.5 9.2 -4.6 28 6.9 SE 9 11 5 6 1019.0 1018.0 0.0
21/08:30pm 15.2 11.3 -4.7 25 7.7 ESE 7 9 4 5 1018.6 1017.6 0.0
21/08:00pm 16.2 12.5 -4.9 23 8.2 ESE 6 7 3 4 1018.1 - 0.0
21/07:30pm 17.0 13.0 -5.5 21 8.8 SE 7 9 4 5 1017.8 1016.7 0.0
21/07:00pm 20.1 15.6 -6.5 16 10.5 SE 9 11 5 6 1017.4 - 0.0
21/06:30pm 22.9 18.0 -6.9 13 12.0 ESE 11 13 6 7 1016.9 1015.8 0.0
21/06:00pm 24.7 19.1 -6.6 12 12.9 SE 15 20 8 11 1016.8 1015.7 0.0
21/05:30pm 25.4 19.3 -7.2 11 13.4 SE 17 20 9 11 1016.6 1015.5 0.0
21/05:00pm 26.0 19.4 -6.7 11 13.6 ESE 20 30 11 16 1016.4 - 0.0
21/04:30pm 26.4 20.0 -6.4 11 13.8 SSE 19 26 10 14 1016.2 1015.1 0.0
21/04:00pm 26.5 20.0 -6.3 11 13.8 E 20 30 11 16 1016.2 - 0.0
21/03:30pm 26.4 20.5 -5.3 12 13.6 SSE 17 28 9 15 1016.3 1015.2 0.0
21/03:00pm 26.2 19.3 -6.5 11 13.7 ESE 22 33 12 18 1016.6 1015.5 0.0
21/02:30pm 26.8 19.6 -4.9 12 13.7 ESE 24 33 13 18 1017.0 1015.9 0.0
21/02:00pm 26.5 20.1 -5.2 12 13.6 SSE 20 30 11 16 1017.3 - 0.0
21/01:30pm 26.3 19.9 -5.3 12 13.5 ENE 20 30 11 16 1017.8 1016.7 0.0
21/01:00pm 25.2 19.4 -5.1 13 12.9 S 17 24 9 13 1018.2 - 0.0
21/12:30pm 25.1 18.7 -5.2 13 12.8 SE 20 35 11 19 1018.7 1017.7 0.0
21/12:00pm 24.5 18.3 -4.7 14 12.4 ESE 19 26 10 14 1019.3 1018.3 0.0
21/11:30am 24.1 17.9 -5.0 14 12.3 E 19 30 10 16 1019.7 1018.6 0.0
21/11:00am 23.5 17.9 -2.9 17 11.5 E 17 24 9 13 1020.0 - 0.0
21/10:30am 22.7 16.7 -2.8 18 11.1 E 19 26 10 14 1020.3 1019.2 0.0
21/10:00am 21.2 15.3 -2.6 20 10.3 ENE 19 26 10 14 1020.4 - 0.0
21/09:30am 19.7 13.7 -3.2 21 9.6 E 19 26 10 14 1020.5 1019.4 0.0
21/09:00am 17.9 13.2 -1.9 26 8.4 E 13 17 7 9 1020.3 1019.2 0.0
21/08:30am 15.1 11.3 -0.6 34 6.6 ESE 9 13 5 7 1020.0 1018.9 0.0
21/08:00am 10.2 7.8 0.0 49 4.2 S 2 7 1 4 1019.6 - 0.0
21/07:30am 5.5 3.5 0.1 68 2.1 CALM 0 0 0 0 1019.0 1018.0 0.0
21/07:00am 5.0 3.0 -0.4 68 2.1 CALM 0 0 0 0 1018.5 - 0.0
21/06:30am 5.5 3.5 -0.3 66 2.2 CALM 0 2 0 1 1018.3 1017.2 0.0
21/06:00am 5.5 2.3 -0.5 65 2.3 WSW 6 7 3 4 1018.1 1017.0 0.0
21/05:30am 6.1 4.0 -1.1 60 2.7 CALM 0 0 0 0 1017.9 1016.8 0.0
21/05:00am 7.1 3.8 -1.1 56 3.2 N 6 7 3 4 1017.7 - 0.0
21/04:30am 7.6 5.5 -1.1 54 3.4 CALM 0 0 0 0 1017.5 1016.4 0.0
21/04:00am 7.7 5.5 -1.3 53 3.5 CALM 0 0 0 0 1017.6 - 0.0
21/03:30am 9.4 5.9 -1.0 48 4.1 ESE 7 9 4 5 1017.7 1016.6 0.0
21/03:00am 11.2 7.0 -1.2 42 5.0 E 11 13 6 7 1018.0 1016.9 0.0
21/02:30am 12.2 8.0 -1.0 40 5.4 ENE 11 15 6 8 1018.0 1016.9 0.0
21/02:00am 11.8 7.6 -1.0 41 5.2 E 11 13 6 7 1018.2 - 0.0
21/01:30am 12.0 7.8 -1.2 40 5.4 ESE 11 13 6 7 1018.4 1017.4 0.0
21/01:00am 12.8 9.0 -0.4 40 5.5 E 9 11 5 6 1018.7 - 0.0
21/12:30am 12.3 8.5 -0.6 41 5.3 ESE 9 9 5 5 1018.8 1017.8 0.0
21/12:00am 12.5 8.7 -1.1 39 5.6 E 9 11 5 6 1018.8 1017.8 0.0
 
Date/Time
CST
Temp
°C
App
Temp
°C
Dew
Point
Rel
Hum
%
Delta-T
°C
Wind Press
QNH
hPa
Press
MSL
hPa
Rain
since 9 am
mm
Dir
 
Spd
km/h
Gust
km/h
Spd
kts
Gust
kts
20/11:30pm 13.3 9.2 -0.3 39 5.7 E 11 13 6 7 1018.8 1017.8 0.0
20/11:00pm 13.8 9.9 -1.4 35 6.3 E 9 11 5 6 1018.7 - 0.0
20/10:30pm 14.5 11.0 -1.2 34 6.5 E 7 9 4 5 1018.6 1017.6 0.0
20/10:00pm 15.5 11.3 -0.7 33 6.9 E 11 13 6 7 1018.5 - 0.0
20/09:30pm 14.8 11.0 -0.5 35 6.5 SE 9 15 5 8 1018.4 1017.4 0.0
20/09:00pm 14.6 11.2 -2.3 31 6.9 ENE 6 7 3 4 1018.1 1017.0 0.0
20/08:30pm 15.7 11.7 -2.3 29 7.4 ENE 9 11 5 6 1017.6 1016.5 0.0
20/08:00pm 17.0 13.0 -2.1 27 8.0 E 9 9 5 5 1017.2 - 0.0
20/07:30pm 18.0 14.1 -1.8 26 8.4 E 9 9 5 5 1016.9 1015.8 0.0
20/07:00pm 18.3 16.0 -2.6 24 8.8 CALM 0 0 0 0 1016.7 - 0.0
20/06:30pm 22.3 18.2 -3.1 18 10.9 E 9 11 5 6 1016.3 1015.2 0.0
20/06:00pm 24.9 20.4 -3.5 15 12.4 ESE 11 17 6 9 1016.2 1015.1 0.0
20/05:30pm 25.7 20.4 -3.8 14 12.9 SE 15 20 8 11 1016.2 1015.1 0.0
20/05:00pm 26.2 21.7 -3.4 14 13.1 SE 11 20 6 11 1016.0 - 0.0
20/04:30pm 26.3 21.8 -3.3 14 13.1 SE 11 20 6 11 1015.9 1014.9 0.0
20/04:00pm 26.4 20.4 -3.2 14 13.2 SE 19 28 10 15 1016.2 - 0.0
20/03:30pm 26.0 21.5 -3.5 14 13.0 SE 11 17 6 9 1016.2 1015.1 0.0
20/03:00pm 26.5 20.4 -2.2 15 13.0 ESE 20 24 11 13 1016.5 1015.4 0.0
20/02:30pm 26.1 21.3 -2.5 15 12.9 SSE 13 17 7 9 1016.9 1015.8 0.0
20/02:00pm 25.2 21.3 -1.6 17 12.2 SE 9 19 5 10 1017.4 - 0.0
20/01:30pm 25.9 21.3 -1.0 17 12.4 SSE 13 22 7 12 1018.1 1017.0 0.0
20/01:00pm 25.3 19.2 -2.3 16 12.4 SSE 20 30 11 16 1018.5 - 0.0
20/12:30pm 24.8 19.3 -1.9 17 12.0 ESE 17 22 9 12 1018.8 1017.8 0.0
20/12:00pm 24.9 19.5 -1.0 18 11.8 ENE 17 20 9 11 1019.1 1018.1 0.0
20/11:30am 24.0 19.6 0.4 21 11.0 E 13 26 7 14 1019.7 1018.6 0.0
20/11:00am 24.0 19.2 0.4 21 11.0 ENE 15 20 8 11 1019.8 - 0.0
20/10:30am 23.5 18.0 0.6 22 10.7 E 19 26 10 14 1020.1 1019.0 0.0
20/10:00am 22.5 16.9 1.5 25 9.9 E 20 28 11 15 1020.3 - 0.0
20/09:30am 20.5 15.0 0.9 27 9.0 E 19 26 10 14 1020.4 1019.3 0.0
20/09:00am 18.9 13.5 1.0 30 8.1 E 19 26 10 14 1020.2 1019.1 0.0
20/08:30am 16.6 12.8 1.9 37 6.7 E 11 17 6 9 1020.0 1018.9 0.0
20/08:19am 15.5 11.8 2.3 41 6.0 E 11 17 6 9 1019.8 - 0.0
20/08:00am 10.5 7.6 2.6 58 3.5 ENE 7 9 4 5 1019.6 - 0.0
20/07:30am 6.4 3.4 0.5 66 2.3 E 6 7 3 4 1019.2 1018.2 0.0
20/07:00am 6.6 3.4 0.5 65 2.4 E 7 9 4 5 1018.9 - 0.0
20/06:30am 7.4 3.9 1.0 64 2.6 E 9 11 5 6 1018.7 1017.7 0.0
20/06:00am 6.1 2.8 0.2 66 2.3 E 7 9 4 5 1018.5 1017.5 0.0
20/05:30am 7.4 4.3 -0.1 59 3.0 E 6 7 3 4 1018.3 1017.2 0.0
20/05:00am 8.5 4.8 -0.3 54 3.5 E 9 9 5 5 1018.0 - 0.0
20/04:30am 10.0 6.4 0.9 53 3.8 E 9 11 5 6 1018.1 1017.0 0.0
20/04:00am 10.1 6.2 1.0 53 3.8 E 11 13 6 7 1018.1 - 0.0
20/03:30am 9.1 5.5 0.6 55 3.5 ESE 9 9 5 5 1018.2 1017.1 0.0
20/03:00am 9.1 6.1 0.8 56 3.4 ESE 6 7 3 4 1018.4 1017.4 0.0
20/02:30am 9.9 6.9 0.5 52 3.9 SE 6 7 3 4 1018.3 1017.2 0.0
20/02:00am 10.9 7.7 0.9 50 4.2 ESE 7 7 4 4 1018.3 - 0.0
20/01:30am 11.2 7.5 0.0 46 4.6 SE 9 11 5 6 1018.5 1017.5 0.0
20/01:00am 12.2 8.6 0.6 45 4.9 SE 9 11 5 6 1018.6 - 0.0
20/12:30am 11.8 8.5 0.3 45 4.8 ESE 7 9 4 5 1018.7 1017.7 0.0
20/12:00am 12.0 8.7 -0.2 43 5.1 ESE 7 9 4 5 1018.7 1017.7 0.0
 
Date/Time
CST
Temp
°C
App
Temp
°C
Dew
Point
Rel
Hum
%
Delta-T
°C
Wind Press
QNH
hPa
Press
MSL
hPa
Rain
since 9 am
mm
Dir
 
Spd
km/h
Gust
km/h
Spd
kts
Gust
kts
19/11:30pm 12.0 8.2 -0.8 41 5.2 ESE 9 11 5 6 1018.6 1017.6 0.0
19/11:00pm 12.6 9.1 -1.0 39 5.6 E 7 9 4 5 1018.7 - 0.0
19/10:30pm 13.4 9.6 -1.0 37 6.0 E 9 11 5 6 1018.6 1017.6 0.0
19/10:00pm 14.1 10.2 -1.5 34 6.4 E 9 11 5 6 1018.5 - 0.0
19/09:30pm 14.7 11.2 -1.4 33 6.7 ESE 7 9 4 5 1018.5 1017.5 0.0
19/09:00pm 15.1 11.2 -1.5 32 6.9 E 9 11 5 6 1018.5 1017.5 0.0
19/08:30pm 15.3 11.3 -2.2 30 7.2 ESE 9 11 5 6 1018.2 1017.1 0.0
19/08:00pm 16.0 12.0 -2.0 29 7.5 ESE 9 11 5 6 1017.8 - 0.0
19/07:30pm 16.3 12.2 -2.7 27 7.8 ESE 9 9 5 5 1017.4 1016.3 0.0
19/07:00pm 18.4 14.3 -3.1 23 8.9 E 9 9 5 5 1016.9 - 0.0
19/06:30pm 20.9 16.7 -4.3 18 10.5 ESE 9 11 5 6 1016.7 1015.6 0.0
19/06:00pm 23.4 18.4 -4.7 15 11.8 ESE 13 17 7 9 1016.5 1015.4 0.0
19/05:30pm 24.2 19.6 -4.0 15 12.1 E 11 28 6 15 1016.4 1015.3 0.0
19/05:00pm 24.7 20.4 -4.6 14 12.5 S 9 13 5 7 1016.3 - 0.0
19/04:30pm 24.7 20.0 -4.6 14 12.5 S 11 17 6 9 1016.2 1015.1 0.0
19/04:00pm 25.1 19.3 -4.2 14 12.7 SE 17 28 9 15 1016.3 - 0.0
19/03:30pm 25.1 19.7 -4.2 14 12.7 SE 15 24 8 13 1016.5 1015.4 0.0

Other Formats:

Comma delimited format used in spreadsheet applications
http://www.bom.gov.au/fwo/IDD60801/IDD60801.94231.axf

JavaScript Object Notation format (JSON) in row-major order
http://www.bom.gov.au/fwo/IDD60801/IDD60801.94231.json